Aviation Digital Data Service (ADDS)

Output produced by METARs form (0335 UTC 22 November 2017)
found at http://aviationweather.gov/adds/metars/
 
KSGR 220253Z 04014KT 10SM OVC014 21/17 A2998 RMK AO2 SLP153 T02060172 51035